sensor_id;sensor_type;location;lat;lon;timestamp;temperature;humidity
63371;DHT22;49504;48.336;14.472;2023-04-24T00:00:47;25.10;49.10
63371;DHT22;49504;48.336;14.472;2023-04-24T00:04:09;25.20;49.10
63371;DHT22;49504;48.336;14.472;2023-04-24T00:07:31;25.20;49.10
63371;DHT22;49504;48.336;14.472;2023-04-24T00:10:52;25.20;49.20
63371;DHT22;49504;48.336;14.472;2023-04-24T00:14:13;25.10;49.00
63371;DHT22;49504;48.336;14.472;2023-04-24T00:17:35;25.20;49.10
63371;DHT22;49504;48.336;14.472;2023-04-24T00:20:57;25.20;49.10
63371;DHT22;49504;48.336;14.472;2023-04-24T00:24:18;25.10;49.00
63371;DHT22;49504;48.336;14.472;2023-04-24T00:27:40;25.10;49.60
63371;DHT22;49504;48.336;14.472;2023-04-24T00:31:01;25.10;49.00
63371;DHT22;49504;48.336;14.472;2023-04-24T00:34:22;25.10;49.00
63371;DHT22;49504;48.336;14.472;2023-04-24T00:37:45;25.10;48.90
63371;DHT22;49504;48.336;14.472;2023-04-24T00:41:06;25.10;48.90
63371;DHT22;49504;48.336;14.472;2023-04-24T00:44:28;25.10;48.90
63371;DHT22;49504;48.336;14.472;2023-04-24T00:47:50;25.10;48.90
63371;DHT22;49504;48.336;14.472;2023-04-24T00:51:13;25.10;48.90
63371;DHT22;49504;48.336;14.472;2023-04-24T00:54:35;25.10;48.90
63371;DHT22;49504;48.336;14.472;2023-04-24T00:57:57;25.10;48.90
63371;DHT22;49504;48.336;14.472;2023-04-24T01:04:11;25.10;48.40
63371;DHT22;49504;48.336;14.472;2023-04-24T01:07:33;25.10;48.90
63371;DHT22;49504;48.336;14.472;2023-04-24T01:10:57;25.10;48.90
63371;DHT22;49504;48.336;14.472;2023-04-24T01:15:07;25.10;48.30
63371;DHT22;49504;48.336;14.472;2023-04-24T01:18:29;25.10;48.90
63371;DHT22;49504;48.336;14.472;2023-04-24T01:21:51;25.10;48.90
63371;DHT22;49504;48.336;14.472;2023-04-24T01:25:15;25.10;48.80
63371;DHT22;49504;48.336;14.472;2023-04-24T01:28:37;25.10;48.80
63371;DHT22;49504;48.336;14.472;2023-04-24T01:32:55;25.10;48.30
63371;DHT22;49504;48.336;14.472;2023-04-24T01:36:16;25.10;48.80
63371;DHT22;49504;48.336;14.472;2023-04-24T01:39:38;25.10;48.80
63371;DHT22;49504;48.336;14.472;2023-04-24T01:43:00;25.10;48.80
63371;DHT22;49504;48.336;14.472;2023-04-24T01:46:21;25.10;48.80
63371;DHT22;49504;48.336;14.472;2023-04-24T01:49:45;25.10;48.80
63371;DHT22;49504;48.336;14.472;2023-04-24T01:55:31;25.10;48.30
63371;DHT22;49504;48.336;14.472;2023-04-24T01:58:54;25.10;48.70
63371;DHT22;49504;48.336;14.472;2023-04-24T02:02:15;25.10;48.70
63371;DHT22;49504;48.336;14.472;2023-04-24T02:05:36;25.10;48.70
63371;DHT22;49504;48.336;14.472;2023-04-24T02:08:58;25.10;48.60
63371;DHT22;49504;48.336;14.472;2023-04-24T02:12:20;25.10;48.70
63371;DHT22;49504;48.336;14.472;2023-04-24T02:15:41;25.10;48.70
63371;DHT22;49504;48.336;14.472;2023-04-24T02:21:36;25.10;48.20
63371;DHT22;49504;48.336;14.472;2023-04-24T02:24:58;25.10;48.70
63371;DHT22;49504;48.336;14.472;2023-04-24T02:28:19;25.10;48.70
63371;DHT22;49504;48.336;14.472;2023-04-24T02:31:40;25.10;48.70
63371;DHT22;49504;48.336;14.472;2023-04-24T02:35:01;25.10;48.60
63371;DHT22;49504;48.336;14.472;2023-04-24T02:38:24;25.10;48.60
63371;DHT22;49504;48.336;14.472;2023-04-24T02:41:45;25.10;48.60
63371;DHT22;49504;48.336;14.472;2023-04-24T02:45:07;25.10;48.60
63371;DHT22;49504;48.336;14.472;2023-04-24T02:48:29;25.10;48.60
63371;DHT22;49504;48.336;14.472;2023-04-24T02:54:54;25.10;48.10
63371;DHT22;49504;48.336;14.472;2023-04-24T02:58:15;25.10;48.70
63371;DHT22;49504;48.336;14.472;2023-04-24T03:01:36;25.10;48.60
63371;DHT22;49504;48.336;14.472;2023-04-24T03:06:03;25.10;48.20
63371;DHT22;49504;48.336;14.472;2023-04-24T03:09:25;25.10;49.40
63371;DHT22;49504;48.336;14.472;2023-04-24T03:12:46;25.10;48.70
63371;DHT22;49504;48.336;14.472;2023-04-24T03:16:07;25.10;48.70
63371;DHT22;49504;48.336;14.472;2023-04-24T03:19:28;25.10;49.40
63371;DHT22;49504;48.336;14.472;2023-04-24T03:22:58;25.10;48.70
63371;DHT22;49504;48.336;14.472;2023-04-24T03:26:20;25.10;48.70
63371;DHT22;49504;48.336;14.472;2023-04-24T03:29:55;25.10;48.80
63371;DHT22;49504;48.336;14.472;2023-04-24T03:33:20;25.10;48.80
63371;DHT22;49504;48.336;14.472;2023-04-24T03:36:50;25.10;48.90
63371;DHT22;49504;48.336;14.472;2023-04-24T03:41:17;25.10;48.30
63371;DHT22;49504;48.336;14.472;2023-04-24T03:44:45;25.10;48.90
63371;DHT22;49504;48.336;14.472;2023-04-24T03:48:06;25.00;48.90
63371;DHT22;49504;48.336;14.472;2023-04-24T03:51:27;25.10;48.90
63371;DHT22;49504;48.336;14.472;2023-04-24T03:54:52;25.00;49.30
63371;DHT22;49504;48.336;14.472;2023-04-24T03:58:15;25.00;48.60
63371;DHT22;49504;48.336;14.472;2023-04-24T04:01:37;25.10;48.70
63371;DHT22;49504;48.336;14.472;2023-04-24T04:05:08;25.10;48.60
63371;DHT22;49504;48.336;14.472;2023-04-24T04:08:29;25.10;48.70
63371;DHT22;49504;48.336;14.472;2023-04-24T04:11:51;25.10;48.90
63371;DHT22;49504;48.336;14.472;2023-04-24T04:15:13;25.10;48.90
63371;DHT22;49504;48.336;14.472;2023-04-24T04:18:36;25.10;48.80
63371;DHT22;49504;48.336;14.472;2023-04-24T04:22:00;25.10;48.90
63371;DHT22;49504;48.336;14.472;2023-04-24T04:25:34;25.10;48.90
63371;DHT22;49504;48.336;14.472;2023-04-24T04:28:56;25.10;49.00
63371;DHT22;49504;48.336;14.472;2023-04-24T04:32:19;25.10;48.90
63371;DHT22;49504;48.336;14.472;2023-04-24T04:35:40;25.10;49.10
63371;DHT22;49504;48.336;14.472;2023-04-24T04:39:02;25.10;49.00
63371;DHT22;49504;48.336;14.472;2023-04-24T04:42:44;25.10;49.10
63371;DHT22;49504;48.336;14.472;2023-04-24T04:46:05;25.10;49.30
63371;DHT22;49504;48.336;14.472;2023-04-24T04:49:42;25.10;49.10
63371;DHT22;49504;48.336;14.472;2023-04-24T04:53:10;25.10;49.00
63371;DHT22;49504;48.336;14.472;2023-04-24T04:56:33;25.10;48.90
63371;DHT22;49504;48.336;14.472;2023-04-24T04:59:55;25.10;48.60
63371;DHT22;49504;48.336;14.472;2023-04-24T05:03:31;25.10;49.30
63371;DHT22;49504;48.336;14.472;2023-04-24T05:06:59;25.10;48.70
63371;DHT22;49504;48.336;14.472;2023-04-24T05:10:23;25.10;48.60
63371;DHT22;49504;48.336;14.472;2023-04-24T05:13:47;25.10;48.50
63371;DHT22;49504;48.336;14.472;2023-04-24T05:20:07;25.00;48.00
63371;DHT22;49504;48.336;14.472;2023-04-24T05:23:28;25.00;49.00
63371;DHT22;49504;48.336;14.472;2023-04-24T05:28:51;25.00;48.00
63371;DHT22;49504;48.336;14.472;2023-04-24T05:35:01;25.00;48.00
63371;DHT22;49504;48.336;14.472;2023-04-24T05:38:23;25.00;48.50
63371;DHT22;49504;48.336;14.472;2023-04-24T05:41:44;25.00;48.50
63371;DHT22;49504;48.336;14.472;2023-04-24T05:45:06;24.90;48.30
63371;DHT22;49504;48.336;14.472;2023-04-24T05:48:29;25.00;48.40
63371;DHT22;49504;48.336;14.472;2023-04-24T05:51:52;25.00;48.50
63371;DHT22;49504;48.336;14.472;2023-04-24T05:55:13;25.00;48.40
63371;DHT22;49504;48.336;14.472;2023-04-24T05:58:36;25.00;48.50
63371;DHT22;49504;48.336;14.472;2023-04-24T06:01:58;24.90;48.40
63371;DHT22;49504;48.336;14.472;2023-04-24T06:06:23;24.90;47.80
63371;DHT22;49504;48.336;14.472;2023-04-24T06:09:45;24.90;48.30
63371;DHT22;49504;48.336;14.472;2023-04-24T06:13:07;24.90;48.20
63371;DHT22;49504;48.336;14.472;2023-04-24T06:16:30;24.90;48.30
63371;DHT22;49504;48.336;14.472;2023-04-24T06:19:57;24.90;48.20
63371;DHT22;49504;48.336;14.472;2023-04-24T06:26:33;24.90;47.80
63371;DHT22;49504;48.336;14.472;2023-04-24T06:29:55;24.90;48.40
63371;DHT22;49504;48.336;14.472;2023-04-24T06:33:16;25.00;48.40
63371;DHT22;49504;48.336;14.472;2023-04-24T06:36:37;24.90;48.40
63371;DHT22;49504;48.336;14.472;2023-04-24T06:39:58;24.90;48.40
63371;DHT22;49504;48.336;14.472;2023-04-24T06:43:21;25.00;48.50
63371;DHT22;49504;48.336;14.472;2023-04-24T06:46:42;24.90;48.40
63371;DHT22;49504;48.336;14.472;2023-04-24T06:50:04;24.90;48.20
63371;DHT22;49504;48.336;14.472;2023-04-24T06:53:26;24.90;48.20
63371;DHT22;49504;48.336;14.472;2023-04-24T06:56:47;24.90;48.20
63371;DHT22;49504;48.336;14.472;2023-04-24T07:00:11;24.90;48.30
63371;DHT22;49504;48.336;14.472;2023-04-24T07:03:33;24.90;48.40
63371;DHT22;49504;48.336;14.472;2023-04-24T07:06:54;24.90;48.30
63371;DHT22;49504;48.336;14.472;2023-04-24T07:11:45;24.90;47.80
63371;DHT22;49504;48.336;14.472;2023-04-24T07:15:07;25.00;48.40
63371;DHT22;49504;48.336;14.472;2023-04-24T07:18:29;25.00;48.40
63371;DHT22;49504;48.336;14.472;2023-04-24T07:21:50;24.90;48.40
63371;DHT22;49504;48.336;14.472;2023-04-24T07:25:11;24.90;48.40
63371;DHT22;49504;48.336;14.472;2023-04-24T07:28:34;25.00;48.40
63371;DHT22;49504;48.336;14.472;2023-04-24T07:31:55;24.90;48.40
63371;DHT22;49504;48.336;14.472;2023-04-24T07:35:16;25.00;48.40
63371;DHT22;49504;48.336;14.472;2023-04-24T07:38:37;25.00;48.50
63371;DHT22;49504;48.336;14.472;2023-04-24T07:41:58;24.90;48.40
63371;DHT22;49504;48.336;14.472;2023-04-24T07:45:21;25.00;48.50
63371;DHT22;49504;48.336;14.472;2023-04-24T07:48:42;25.00;48.50
63371;DHT22;49504;48.336;14.472;2023-04-24T07:52:03;25.00;48.70
63371;DHT22;49504;48.336;14.472;2023-04-24T07:55:24;25.00;48.70
63371;DHT22;49504;48.336;14.472;2023-04-24T07:58:45;25.00;48.60
63371;DHT22;49504;48.336;14.472;2023-04-24T08:02:08;25.00;48.60
63371;DHT22;49504;48.336;14.472;2023-04-24T08:05:29;25.00;48.50
63371;DHT22;49504;48.336;14.472;2023-04-24T08:08:50;25.00;48.40
63371;DHT22;49504;48.336;14.472;2023-04-24T08:12:11;25.00;48.60
63371;DHT22;49504;48.336;14.472;2023-04-24T08:15:32;25.00;48.70
63371;DHT22;49504;48.336;14.472;2023-04-24T08:18:55;25.00;48.80
63371;DHT22;49504;48.336;14.472;2023-04-24T08:22:16;25.00;48.90
63371;DHT22;49504;48.336;14.472;2023-04-24T08:25:37;25.00;49.10
63371;DHT22;49504;48.336;14.472;2023-04-24T08:28:58;25.00;49.00
63371;DHT22;49504;48.336;14.472;2023-04-24T08:32:20;25.00;49.10
63371;DHT22;49504;48.336;14.472;2023-04-24T08:35:42;25.00;49.10
63371;DHT22;49504;48.336;14.472;2023-04-24T08:39:03;25.00;49.20
63371;DHT22;49504;48.336;14.472;2023-04-24T08:42:25;25.00;49.30
63371;DHT22;49504;48.336;14.472;2023-04-24T08:45:49;25.00;49.30
63371;DHT22;49504;48.336;14.472;2023-04-24T08:49:11;25.10;49.40
63371;DHT22;49504;48.336;14.472;2023-04-24T08:52:34;25.00;49.30
63371;DHT22;49504;48.336;14.472;2023-04-24T08:55:56;25.00;49.30
63371;DHT22;49504;48.336;14.472;2023-04-24T08:59:17;25.10;49.20
63371;DHT22;49504;48.336;14.472;2023-04-24T09:02:41;25.00;49.30
63371;DHT22;49504;48.336;14.472;2023-04-24T09:06:04;25.00;49.30
63371;DHT22;49504;48.336;14.472;2023-04-24T09:10:17;25.00;48.70
63371;DHT22;49504;48.336;14.472;2023-04-24T09:13:38;25.00;49.40
63371;DHT22;49504;48.336;14.472;2023-04-24T09:17:00;25.00;49.40
63371;DHT22;49504;48.336;14.472;2023-04-24T09:20:21;25.00;49.30
63371;DHT22;49504;48.336;14.472;2023-04-24T09:23:42;25.00;49.30
63371;DHT22;49504;48.336;14.472;2023-04-24T09:27:04;25.00;49.20
63371;DHT22;49504;48.336;14.472;2023-04-24T09:30:26;25.00;48.40
63371;DHT22;49504;48.336;14.472;2023-04-24T09:33:54;25.00;48.30
63371;DHT22;49504;48.336;14.472;2023-04-24T09:38:48;25.00;47.90
63371;DHT22;49504;48.336;14.472;2023-04-24T09:42:09;25.00;48.20
63371;DHT22;49504;48.336;14.472;2023-04-24T09:45:35;25.00;48.20
63371;DHT22;49504;48.336;14.472;2023-04-24T09:48:57;25.00;48.20
63371;DHT22;49504;48.336;14.472;2023-04-24T09:52:18;25.00;48.00
63371;DHT22;49504;48.336;14.472;2023-04-24T09:58:41;25.00;47.70
63371;DHT22;49504;48.336;14.472;2023-04-24T10:02:03;25.00;48.30
63371;DHT22;49504;48.336;14.472;2023-04-24T10:05:38;25.00;48.10
63371;DHT22;49504;48.336;14.472;2023-04-24T10:08:59;25.00;48.20
63371;DHT22;49504;48.336;14.472;2023-04-24T10:12:21;25.00;48.10
63371;DHT22;49504;48.336;14.472;2023-04-24T10:15:44;25.00;48.10
63371;DHT22;49504;48.336;14.472;2023-04-24T10:19:05;25.00;48.00
63371;DHT22;49504;48.336;14.472;2023-04-24T10:23:28;25.00;47.60
63371;DHT22;49504;48.336;14.472;2023-04-24T10:26:50;25.10;48.10
63371;DHT22;49504;48.336;14.472;2023-04-24T10:30:13;25.10;48.00
63371;DHT22;49504;48.336;14.472;2023-04-24T10:33:35;25.10;48.60
63371;DHT22;49504;48.336;14.472;2023-04-24T10:36:57;25.00;47.90
63371;DHT22;49504;48.336;14.472;2023-04-24T10:40:25;25.00;47.90
63371;DHT22;49504;48.336;14.472;2023-04-24T10:43:47;25.00;48.00
63371;DHT22;49504;48.336;14.472;2023-04-24T10:47:13;25.00;48.00
63371;DHT22;49504;48.336;14.472;2023-04-24T10:50:45;25.00;48.00
63371;DHT22;49504;48.336;14.472;2023-04-24T10:54:22;25.00;48.10
63371;DHT22;49504;48.336;14.472;2023-04-24T10:58:03;25.10;48.10
63371;DHT22;49504;48.336;14.472;2023-04-24T11:01:26;25.10;48.80
63371;DHT22;49504;48.336;14.472;2023-04-24T11:04:51;25.00;48.00
63371;DHT22;49504;48.336;14.472;2023-04-24T11:08:13;25.10;48.10
63371;DHT22;49504;48.336;14.472;2023-04-24T11:11:36;25.10;48.10
63371;DHT22;49504;48.336;14.472;2023-04-24T11:15:02;25.10;48.10
63371;DHT22;49504;48.336;14.472;2023-04-24T11:18:24;25.10;48.00
63371;DHT22;49504;48.336;14.472;2023-04-24T11:21:47;25.10;48.10
63371;DHT22;49504;48.336;14.472;2023-04-24T11:25:09;25.10;48.20
63371;DHT22;49504;48.336;14.472;2023-04-24T11:28:30;25.10;48.10
63371;DHT22;49504;48.336;14.472;2023-04-24T11:31:53;25.10;47.90
63371;DHT22;49504;48.336;14.472;2023-04-24T11:35:15;25.10;48.10
63371;DHT22;49504;48.336;14.472;2023-04-24T11:38:37;25.10;47.90
63371;DHT22;49504;48.336;14.472;2023-04-24T11:42:02;25.10;47.90
63371;DHT22;49504;48.336;14.472;2023-04-24T11:45:25;25.30;47.90
63371;DHT22;49504;48.336;14.472;2023-04-24T11:48:48;25.30;47.70
63371;DHT22;49504;48.336;14.472;2023-04-24T11:52:09;25.40;47.60
63371;DHT22;49504;48.336;14.472;2023-04-24T11:55:31;25.40;47.50
63371;DHT22;49504;48.336;14.472;2023-04-24T11:58:52;25.50;47.50
63371;DHT22;49504;48.336;14.472;2023-04-24T12:02:23;25.50;47.40
63371;DHT22;49504;48.336;14.472;2023-04-24T12:05:46;25.60;47.60
63371;DHT22;49504;48.336;14.472;2023-04-24T12:09:08;25.60;47.40
63371;DHT22;49504;48.336;14.472;2023-04-24T12:12:30;25.60;47.40
63371;DHT22;49504;48.336;14.472;2023-04-24T12:15:51;25.70;47.50
63371;DHT22;49504;48.336;14.472;2023-04-24T12:19:12;25.70;47.50
63371;DHT22;49504;48.336;14.472;2023-04-24T12:22:47;25.70;47.70
63371;DHT22;49504;48.336;14.472;2023-04-24T12:26:09;25.70;47.60
63371;DHT22;49504;48.336;14.472;2023-04-24T12:29:30;25.80;47.50
63371;DHT22;49504;48.336;14.472;2023-04-24T12:32:51;25.70;47.30
63371;DHT22;49504;48.336;14.472;2023-04-24T12:36:13;25.80;47.50
63371;DHT22;49504;48.336;14.472;2023-04-24T12:39:35;25.80;47.60
63371;DHT22;49504;48.336;14.472;2023-04-24T12:42:56;25.80;47.50
63371;DHT22;49504;48.336;14.472;2023-04-24T12:46:18;25.80;47.60
63371;DHT22;49504;48.336;14.472;2023-04-24T12:49:39;25.80;47.80
63371;DHT22;49504;48.336;14.472;2023-04-24T12:53:00;25.80;47.80
63371;DHT22;49504;48.336;14.472;2023-04-24T12:56:24;25.70;47.80
63371;DHT22;49504;48.336;14.472;2023-04-24T12:59:47;25.70;47.90
63371;DHT22;49504;48.336;14.472;2023-04-24T13:03:09;25.70;47.90
63371;DHT22;49504;48.336;14.472;2023-04-24T13:06:31;25.70;48.10
63371;DHT22;49504;48.336;14.472;2023-04-24T13:09:54;25.60;48.00
63371;DHT22;49504;48.336;14.472;2023-04-24T13:13:23;25.60;48.10
63371;DHT22;49504;48.336;14.472;2023-04-24T13:16:49;25.60;48.30
63371;DHT22;49504;48.336;14.472;2023-04-24T13:20:10;25.60;48.30
63371;DHT22;49504;48.336;14.472;2023-04-24T13:23:32;25.60;48.30
63371;DHT22;49504;48.336;14.472;2023-04-24T13:26:55;25.50;48.30
63371;DHT22;49504;48.336;14.472;2023-04-24T13:30:18;25.50;48.40
63371;DHT22;49504;48.336;14.472;2023-04-24T13:33:39;25.50;48.50
63371;DHT22;49504;48.336;14.472;2023-04-24T13:37:01;25.50;48.50
63371;DHT22;49504;48.336;14.472;2023-04-24T13:40:22;25.50;48.40
63371;DHT22;49504;48.336;14.472;2023-04-24T13:43:44;25.50;48.30
63371;DHT22;49504;48.336;14.472;2023-04-24T13:50:22;25.50;47.60
63371;DHT22;49504;48.336;14.472;2023-04-24T13:53:43;25.40;48.10
63371;DHT22;49504;48.336;14.472;2023-04-24T13:57:05;25.40;48.00
63371;DHT22;49504;48.336;14.472;2023-04-24T14:00:27;25.40;48.00
63371;DHT22;49504;48.336;14.472;2023-04-24T14:06:01;25.40;47.60
63371;DHT22;49504;48.336;14.472;2023-04-24T14:09:23;25.40;48.30
63371;DHT22;49504;48.336;14.472;2023-04-24T14:12:45;25.40;48.10
63371;DHT22;49504;48.336;14.472;2023-04-24T14:16:06;25.40;48.30
63371;DHT22;49504;48.336;14.472;2023-04-24T14:19:27;25.40;48.10
63371;DHT22;49504;48.336;14.472;2023-04-24T14:22:50;25.40;48.10
63371;DHT22;49504;48.336;14.472;2023-04-24T14:26:11;25.40;48.10
63371;DHT22;49504;48.336;14.472;2023-04-24T14:29:32;25.40;48.10
63371;DHT22;49504;48.336;14.472;2023-04-24T14:32:53;25.40;48.00
63371;DHT22;49504;48.336;14.472;2023-04-24T14:36:14;25.40;48.00
63371;DHT22;49504;48.336;14.472;2023-04-24T14:39:37;25.40;48.10
63371;DHT22;49504;48.336;14.472;2023-04-24T14:42:59;25.40;48.10
63371;DHT22;49504;48.336;14.472;2023-04-24T14:46:20;25.30;48.00
63371;DHT22;49504;48.336;14.472;2023-04-24T14:49:41;25.30;48.00
63371;DHT22;49504;48.336;14.472;2023-04-24T14:53:02;25.30;48.00
63371;DHT22;49504;48.336;14.472;2023-04-24T14:56:25;25.30;48.10
63371;DHT22;49504;48.336;14.472;2023-04-24T14:59:46;25.30;48.10
63371;DHT22;49504;48.336;14.472;2023-04-24T15:03:07;25.30;48.10
63371;DHT22;49504;48.336;14.472;2023-04-24T15:06:30;25.30;48.10
63371;DHT22;49504;48.336;14.472;2023-04-24T15:09:51;25.30;48.10
63371;DHT22;49504;48.336;14.472;2023-04-24T15:13:14;25.30;48.20
63371;DHT22;49504;48.336;14.472;2023-04-24T15:16:35;25.30;48.40
63371;DHT22;49504;48.336;14.472;2023-04-24T15:19:56;25.40;48.30
63371;DHT22;49504;48.336;14.472;2023-04-24T15:23:17;25.30;48.20
63371;DHT22;49504;48.336;14.472;2023-04-24T15:26:38;25.40;48.30
63371;DHT22;49504;48.336;14.472;2023-04-24T15:30:01;25.30;48.30
63371;DHT22;49504;48.336;14.472;2023-04-24T15:33:23;25.40;48.40
63371;DHT22;49504;48.336;14.472;2023-04-24T15:36:44;25.30;48.40
63371;DHT22;49504;48.336;14.472;2023-04-24T15:40:07;25.30;48.50
63371;DHT22;49504;48.336;14.472;2023-04-24T15:43:28;25.40;48.50
63371;DHT22;49504;48.336;14.472;2023-04-24T15:46:51;25.40;48.50
63371;DHT22;49504;48.336;14.472;2023-04-24T15:50:12;25.30;48.50
63371;DHT22;49504;48.336;14.472;2023-04-24T15:53:33;25.30;48.60
63371;DHT22;49504;48.336;14.472;2023-04-24T15:56:54;25.30;48.60
63371;DHT22;49504;48.336;14.472;2023-04-24T16:00:16;25.40;48.70
63371;DHT22;49504;48.336;14.472;2023-04-24T16:03:39;25.40;48.80
63371;DHT22;49504;48.336;14.472;2023-04-24T16:07:01;25.40;48.80
63371;DHT22;49504;48.336;14.472;2023-04-24T16:10:49;25.40;48.20
63371;DHT22;49504;48.336;14.472;2023-04-24T16:14:10;25.40;48.80
63371;DHT22;49504;48.336;14.472;2023-04-24T16:17:31;25.40;48.80
63371;DHT22;49504;48.336;14.472;2023-04-24T16:20:52;25.40;48.70
63371;DHT22;49504;48.336;14.472;2023-04-24T16:24:13;25.40;48.70
63371;DHT22;49504;48.336;14.472;2023-04-24T16:27:36;25.30;48.50
63371;DHT22;49504;48.336;14.472;2023-04-24T16:33:51;25.40;47.90
63371;DHT22;49504;48.336;14.472;2023-04-24T16:37:12;25.30;48.20
63371;DHT22;49504;48.336;14.472;2023-04-24T16:40:33;25.30;48.30
63371;DHT22;49504;48.336;14.472;2023-04-24T16:43:54;25.30;48.30
63371;DHT22;49504;48.336;14.472;2023-04-24T16:47:15;25.30;48.40
63371;DHT22;49504;48.336;14.472;2023-04-24T16:50:38;25.30;48.30
63371;DHT22;49504;48.336;14.472;2023-04-24T16:56:31;25.30;47.70
63371;DHT22;49504;48.336;14.472;2023-04-24T16:59:53;25.30;48.20
63371;DHT22;49504;48.336;14.472;2023-04-24T17:03:14;25.30;48.20
63371;DHT22;49504;48.336;14.472;2023-04-24T17:06:35;25.30;48.10
63371;DHT22;49504;48.336;14.472;2023-04-24T17:09:56;25.40;48.20
63371;DHT22;49504;48.336;14.472;2023-04-24T17:13:18;25.30;48.10
63371;DHT22;49504;48.336;14.472;2023-04-24T17:16:40;25.30;48.20
63371;DHT22;49504;48.336;14.472;2023-04-24T17:20:31;25.30;47.60
63371;DHT22;49504;48.336;14.472;2023-04-24T17:23:53;25.30;48.30
63371;DHT22;49504;48.336;14.472;2023-04-24T17:27:14;25.40;48.40
63371;DHT22;49504;48.336;14.472;2023-04-24T17:30:35;25.30;48.30
63371;DHT22;49504;48.336;14.472;2023-04-24T17:34:26;25.30;47.30
63371;DHT22;49504;48.336;14.472;2023-04-24T17:37:48;25.30;47.80
63371;DHT22;49504;48.336;14.472;2023-04-24T17:41:09;25.30;47.80
63371;DHT22;49504;48.336;14.472;2023-04-24T17:45:33;25.30;47.30
63371;DHT22;49504;48.336;14.472;2023-04-24T17:48:54;25.30;47.80
63371;DHT22;49504;48.336;14.472;2023-04-24T17:52:15;25.30;47.80
63371;DHT22;49504;48.336;14.472;2023-04-24T17:55:37;25.30;47.60
63371;DHT22;49504;48.336;14.472;2023-04-24T17:58:59;25.30;47.50
63371;DHT22;49504;48.336;14.472;2023-04-24T18:02:22;25.30;47.50
63371;DHT22;49504;48.336;14.472;2023-04-24T18:05:43;25.30;47.40
63371;DHT22;49504;48.336;14.472;2023-04-24T18:09:05;25.30;47.40
63371;DHT22;49504;48.336;14.472;2023-04-24T18:15:07;25.30;47.00
63371;DHT22;49504;48.336;14.472;2023-04-24T18:18:30;25.30;47.50
63371;DHT22;49504;48.336;14.472;2023-04-24T18:21:51;25.30;47.60
63371;DHT22;49504;48.336;14.472;2023-04-24T18:25:13;25.30;47.70
63371;DHT22;49504;48.336;14.472;2023-04-24T18:28:34;25.30;47.60
63371;DHT22;49504;48.336;14.472;2023-04-24T18:31:56;25.30;47.50
63371;DHT22;49504;48.336;14.472;2023-04-24T18:35:18;25.30;47.50
63371;DHT22;49504;48.336;14.472;2023-04-24T18:38:39;25.30;47.50
63371;DHT22;49504;48.336;14.472;2023-04-24T18:43:09;25.30;47.00
63371;DHT22;49504;48.336;14.472;2023-04-24T18:46:30;25.30;47.50
63371;DHT22;49504;48.336;14.472;2023-04-24T18:49:51;25.30;47.50
63371;DHT22;49504;48.336;14.472;2023-04-24T18:53:12;25.30;47.60
63371;DHT22;49504;48.336;14.472;2023-04-24T18:56:33;25.30;47.50
63371;DHT22;49504;48.336;14.472;2023-04-24T18:59:56;25.30;47.60
63371;DHT22;49504;48.336;14.472;2023-04-24T19:03:17;25.30;47.60
63371;DHT22;49504;48.336;14.472;2023-04-24T19:06:38;25.30;47.50
63371;DHT22;49504;48.336;14.472;2023-04-24T19:09:59;25.30;47.40
63371;DHT22;49504;48.336;14.472;2023-04-24T19:13:20;25.30;47.30
63371;DHT22;49504;48.336;14.472;2023-04-24T19:16:43;25.30;47.20
63371;DHT22;49504;48.336;14.472;2023-04-24T19:20:05;25.20;47.10
63371;DHT22;49504;48.336;14.472;2023-04-24T19:23:27;25.30;47.20
63371;DHT22;49504;48.336;14.472;2023-04-24T19:26:49;25.30;47.30
63371;DHT22;49504;48.336;14.472;2023-04-24T19:30:10;25.20;47.20
63371;DHT22;49504;48.336;14.472;2023-04-24T19:33:33;25.20;47.20
63371;DHT22;49504;48.336;14.472;2023-04-24T19:36:55;25.20;47.20
63371;DHT22;49504;48.336;14.472;2023-04-24T19:40:16;25.20;47.40
63371;DHT22;49504;48.336;14.472;2023-04-24T19:43:37;25.20;47.30
63371;DHT22;49504;48.336;14.472;2023-04-24T19:48:22;25.20;46.80
63371;DHT22;49504;48.336;14.472;2023-04-24T19:51:43;25.20;47.30
63371;DHT22;49504;48.336;14.472;2023-04-24T19:55:05;25.20;47.20
63371;DHT22;49504;48.336;14.472;2023-04-24T19:58:26;25.20;47.30
63371;DHT22;49504;48.336;14.472;2023-04-24T20:01:47;25.20;47.30
63371;DHT22;49504;48.336;14.472;2023-04-24T20:05:10;25.20;47.40
63371;DHT22;49504;48.336;14.472;2023-04-24T20:08:31;25.20;47.40
63371;DHT22;49504;48.336;14.472;2023-04-24T20:11:52;25.20;47.50
63371;DHT22;49504;48.336;14.472;2023-04-24T20:15:13;25.20;47.50
63371;DHT22;49504;48.336;14.472;2023-04-24T20:18:34;25.30;47.50
63371;DHT22;49504;48.336;14.472;2023-04-24T20:21:58;25.20;47.50
63371;DHT22;49504;48.336;14.472;2023-04-24T20:25:19;25.20;47.40
63371;DHT22;49504;48.336;14.472;2023-04-24T20:28:40;25.20;47.40
63371;DHT22;49504;48.336;14.472;2023-04-24T20:32:01;25.20;47.80
63371;DHT22;49504;48.336;14.472;2023-04-24T20:35:23;25.20;48.10
63371;DHT22;49504;48.336;14.472;2023-04-24T20:38:45;25.20;48.20
63371;DHT22;49504;48.336;14.472;2023-04-24T20:42:06;25.20;48.10
63371;DHT22;49504;48.336;14.472;2023-04-24T20:45:27;25.20;47.80
63371;DHT22;49504;48.336;14.472;2023-04-24T20:48:48;25.20;47.80
63371;DHT22;49504;48.336;14.472;2023-04-24T20:52:09;25.20;47.70
63371;DHT22;49504;48.336;14.472;2023-04-24T20:55:32;25.20;47.80
63371;DHT22;49504;48.336;14.472;2023-04-24T20:58:53;25.20;47.60
63371;DHT22;49504;48.336;14.472;2023-04-24T21:02:14;25.20;47.60
63371;DHT22;49504;48.336;14.472;2023-04-24T21:05:35;25.20;47.60
63371;DHT22;49504;48.336;14.472;2023-04-24T21:08:56;25.20;47.50
63371;DHT22;49504;48.336;14.472;2023-04-24T21:12:19;25.20;47.50
63371;DHT22;49504;48.336;14.472;2023-04-24T21:15:40;25.20;47.50
63371;DHT22;49504;48.336;14.472;2023-04-24T21:19:01;25.20;47.50
63371;DHT22;49504;48.336;14.472;2023-04-24T21:22:22;25.20;47.50
63371;DHT22;49504;48.336;14.472;2023-04-24T21:25:43;25.20;47.40
63371;DHT22;49504;48.336;14.472;2023-04-24T21:29:06;25.20;47.50
63371;DHT22;49504;48.336;14.472;2023-04-24T21:32:27;25.20;47.50
63371;DHT22;49504;48.336;14.472;2023-04-24T21:35:48;25.20;47.50
63371;DHT22;49504;48.336;14.472;2023-04-24T21:39:09;25.20;47.50
63371;DHT22;49504;48.336;14.472;2023-04-24T21:42:30;25.20;47.60
63371;DHT22;49504;48.336;14.472;2023-04-24T21:45:53;25.20;47.50
63371;DHT22;49504;48.336;14.472;2023-04-24T21:49:14;25.20;47.40